createdAt,value
2022-12-11T00:18:53.498Z,17.3
2022-12-11T00:38:53.468Z,17.3
2022-12-11T00:58:53.478Z,17.3
2022-12-11T01:18:53.447Z,17.2
2022-12-11T01:38:53.418Z,17.2
2022-12-11T01:58:53.384Z,17.2
2022-12-11T02:38:53.368Z,17.1
2022-12-11T02:58:53.325Z,17.1
2022-12-11T03:18:53.302Z,17.1
2022-12-11T03:38:53.254Z,17.1
2022-12-11T03:58:53.260Z,17.0
2022-12-11T04:18:53.233Z,17.0
2022-12-11T04:38:53.207Z,17.0
2022-12-11T04:58:53.156Z,17.0
2022-12-11T05:18:53.156Z,17.0
2022-12-11T05:38:53.235Z,16.9
2022-12-11T05:58:53.097Z,17.2
2022-12-11T06:18:53.135Z,17.5
2022-12-11T06:38:53.045Z,17.7
2022-12-11T06:58:53.069Z,17.9
2022-12-11T07:18:53.093Z,18.1
2022-12-11T07:38:53.087Z,18.2
2022-12-11T07:58:52.979Z,18.3
2022-12-11T08:18:52.960Z,18.4
2022-12-11T08:38:52.915Z,18.5
2022-12-11T08:58:52.877Z,18.5
2022-12-11T09:18:52.926Z,18.6
2022-12-11T09:38:52.873Z,18.7
2022-12-11T09:58:52.806Z,18.7
2022-12-11T10:18:52.777Z,18.7
2022-12-11T10:38:52.838Z,18.8
2022-12-11T10:58:52.726Z,18.8
2022-12-11T11:18:52.831Z,18.8
2022-12-11T11:38:52.721Z,18.8
2022-12-11T11:58:52.698Z,18.9
2022-12-11T12:18:52.664Z,18.9
2022-12-11T12:38:52.606Z,18.9
2022-12-11T12:58:52.686Z,18.9
2022-12-11T13:18:52.580Z,18.9
2022-12-11T13:38:52.543Z,19.0
2022-12-11T13:58:52.518Z,19.0
2022-12-11T14:18:52.514Z,19.0
2022-12-11T14:38:52.475Z,19.1
2022-12-11T14:58:52.465Z,19.2
2022-12-11T15:18:52.440Z,19.3
2022-12-11T15:38:52.390Z,19.3
2022-12-11T15:58:52.390Z,19.3
2022-12-11T16:18:52.447Z,19.3
2022-12-11T16:38:52.373Z,19.3
2022-12-11T16:58:52.339Z,19.3
2022-12-11T17:18:52.386Z,19.3
2022-12-11T17:38:52.289Z,19.2
2022-12-11T17:58:52.257Z,19.2
2022-12-11T18:18:52.221Z,19.2
2022-12-11T18:38:52.181Z,19.2
2022-12-11T18:58:52.148Z,19.2
2022-12-11T19:18:52.151Z,19.2
2022-12-11T19:38:52.192Z,19.1
2022-12-11T19:58:52.180Z,19.1
2022-12-11T20:18:52.062Z,19.0
2022-12-11T20:38:52.122Z,18.8
2022-12-11T20:58:51.991Z,18.6
2022-12-11T21:18:51.986Z,18.5
2022-12-11T21:38:51.980Z,18.4
2022-12-11T21:58:51.922Z,18.2
2022-12-11T22:18:51.916Z,18.1
2022-12-11T22:38:51.865Z,18.0
2022-12-11T22:58:51.905Z,17.9
2022-12-11T23:18:51.872Z,17.9
2022-12-11T23:38:51.821Z,17.8
2022-12-11T23:58:51.807Z,17.8
